sensor_id;sensor_type;location;lat;lon;timestamp;P1;durP1;ratioP1;P2;durP2;ratioP2
10934;SDS011;5520;45.752;4.874;2023-07-29T00:02:09;2.47;;;1.73;;
10934;SDS011;5520;45.752;4.874;2023-07-29T00:04:37;3.17;;;1.93;;
10934;SDS011;5520;45.752;4.874;2023-07-29T00:07:05;3.40;;;2.10;;
10934;SDS011;5520;45.752;4.874;2023-07-29T00:09:33;2.10;;;1.90;;
10934;SDS011;5520;45.752;4.874;2023-07-29T00:12:01;3.43;;;2.07;;
10934;SDS011;5520;45.752;4.874;2023-07-29T00:14:30;4.27;;;1.80;;
10934;SDS011;5520;45.752;4.874;2023-07-29T00:16:58;3.93;;;2.10;;
10934;SDS011;5520;45.752;4.874;2023-07-29T00:19:25;2.60;;;2.40;;
10934;SDS011;5520;45.752;4.874;2023-07-29T00:21:55;3.00;;;2.40;;
10934;SDS011;5520;45.752;4.874;2023-07-29T00:24:22;2.20;;;2.00;;
10934;SDS011;5520;45.752;4.874;2023-07-29T00:26:50;2.87;;;2.20;;
10934;SDS011;5520;45.752;4.874;2023-07-29T00:29:18;4.13;;;2.07;;
10934;SDS011;5520;45.752;4.874;2023-07-29T00:31:47;2.30;;;2.10;;
10934;SDS011;5520;45.752;4.874;2023-07-29T00:34:15;2.23;;;2.03;;
10934;SDS011;5520;45.752;4.874;2023-07-29T00:36:46;3.00;;;2.80;;
10934;SDS011;5520;45.752;4.874;2023-07-29T00:39:14;3.57;;;2.10;;
10934;SDS011;5520;45.752;4.874;2023-07-29T00:41:41;2.67;;;2.00;;
10934;SDS011;5520;45.752;4.874;2023-07-29T00:44:09;3.37;;;2.37;;
10934;SDS011;5520;45.752;4.874;2023-07-29T00:46:37;4.90;;;2.47;;
10934;SDS011;5520;45.752;4.874;2023-07-29T00:49:06;3.70;;;2.30;;
10934;SDS011;5520;45.752;4.874;2023-07-29T00:51:34;3.00;;;2.30;;
10934;SDS011;5520;45.752;4.874;2023-07-29T00:54:03;2.40;;;2.07;;
10934;SDS011;5520;45.752;4.874;2023-07-29T00:56:30;3.83;;;2.63;;
10934;SDS011;5520;45.752;4.874;2023-07-29T00:58:58;2.80;;;2.20;;
10934;SDS011;5520;45.752;4.874;2023-07-29T01:01:28;2.83;;;2.43;;
10934;SDS011;5520;45.752;4.874;2023-07-29T01:03:56;2.47;;;2.27;;
10934;SDS011;5520;45.752;4.874;2023-07-29T01:06:27;3.13;;;2.77;;
10934;SDS011;5520;45.752;4.874;2023-07-29T01:08:59;3.23;;;2.40;;
10934;SDS011;5520;45.752;4.874;2023-07-29T01:11:33;4.17;;;2.43;;
10934;SDS011;5520;45.752;4.874;2023-07-29T01:14:04;3.27;;;2.83;;
10934;SDS011;5520;45.752;4.874;2023-07-29T01:16:34;3.57;;;2.50;;
10934;SDS011;5520;45.752;4.874;2023-07-29T01:19:05;3.60;;;3.07;;
10934;SDS011;5520;45.752;4.874;2023-07-29T01:21:34;2.97;;;2.77;;
10934;SDS011;5520;45.752;4.874;2023-07-29T01:24:04;3.30;;;3.07;;
10934;SDS011;5520;45.752;4.874;2023-07-29T01:26:32;4.00;;;2.80;;
10934;SDS011;5520;45.752;4.874;2023-07-29T01:29:00;3.27;;;2.90;;
10934;SDS011;5520;45.752;4.874;2023-07-29T01:31:30;4.83;;;3.13;;
10934;SDS011;5520;45.752;4.874;2023-07-29T01:34:01;4.00;;;2.80;;
10934;SDS011;5520;45.752;4.874;2023-07-29T01:36:32;3.77;;;2.93;;
10934;SDS011;5520;45.752;4.874;2023-07-29T01:39:02;3.30;;;2.43;;
10934;SDS011;5520;45.752;4.874;2023-07-29T01:41:31;4.23;;;2.90;;
10934;SDS011;5520;45.752;4.874;2023-07-29T01:44:00;3.90;;;2.80;;
10934;SDS011;5520;45.752;4.874;2023-07-29T01:46:29;3.33;;;2.90;;
10934;SDS011;5520;45.752;4.874;2023-07-29T01:48:56;3.57;;;3.23;;
10934;SDS011;5520;45.752;4.874;2023-07-29T01:51:24;4.10;;;3.43;;
10934;SDS011;5520;45.752;4.874;2023-07-29T01:53:52;4.77;;;3.53;;
10934;SDS011;5520;45.752;4.874;2023-07-29T01:56:22;6.00;;;3.60;;
10934;SDS011;5520;45.752;4.874;2023-07-29T01:58:51;6.00;;;3.70;;
10934;SDS011;5520;45.752;4.874;2023-07-29T02:01:18;4.43;;;3.40;;
10934;SDS011;5520;45.752;4.874;2023-07-29T02:03:46;4.00;;;3.67;;
10934;SDS011;5520;45.752;4.874;2023-07-29T02:06:19;5.10;;;3.57;;
10934;SDS011;5520;45.752;4.874;2023-07-29T02:08:50;4.10;;;3.53;;
10934;SDS011;5520;45.752;4.874;2023-07-29T02:11:18;4.40;;;3.67;;
10934;SDS011;5520;45.752;4.874;2023-07-29T02:13:48;4.43;;;3.90;;
10934;SDS011;5520;45.752;4.874;2023-07-29T02:16:17;4.13;;;3.60;;
10934;SDS011;5520;45.752;4.874;2023-07-29T02:18:45;4.67;;;3.73;;
10934;SDS011;5520;45.752;4.874;2023-07-29T02:21:13;3.97;;;3.67;;
10934;SDS011;5520;45.752;4.874;2023-07-29T02:23:41;5.17;;;3.67;;
10934;SDS011;5520;45.752;4.874;2023-07-29T02:26:09;4.83;;;3.70;;
10934;SDS011;5520;45.752;4.874;2023-07-29T02:28:37;3.70;;;3.40;;
10934;SDS011;5520;45.752;4.874;2023-07-29T02:31:08;5.53;;;3.93;;
10934;SDS011;5520;45.752;4.874;2023-07-29T02:33:38;5.40;;;4.63;;
10934;SDS011;5520;45.752;4.874;2023-07-29T02:36:06;5.13;;;3.70;;
10934;SDS011;5520;45.752;4.874;2023-07-29T02:38:34;5.43;;;4.07;;
10934;SDS011;5520;45.752;4.874;2023-07-29T02:41:02;5.20;;;3.40;;
10934;SDS011;5520;45.752;4.874;2023-07-29T02:43:29;4.07;;;3.67;;
10934;SDS011;5520;45.752;4.874;2023-07-29T02:45:57;5.73;;;3.93;;
10934;SDS011;5520;45.752;4.874;2023-07-29T02:48:25;4.63;;;3.60;;
10934;SDS011;5520;45.752;4.874;2023-07-29T02:50:54;5.67;;;3.40;;
10934;SDS011;5520;45.752;4.874;2023-07-29T02:53:22;4.50;;;3.40;;
10934;SDS011;5520;45.752;4.874;2023-07-29T02:55:50;3.97;;;3.27;;
10934;SDS011;5520;45.752;4.874;2023-07-29T02:58:18;5.27;;;3.70;;
10934;SDS011;5520;45.752;4.874;2023-07-29T03:00:46;5.33;;;3.57;;
10934;SDS011;5520;45.752;4.874;2023-07-29T03:03:15;3.87;;;3.47;;
10934;SDS011;5520;45.752;4.874;2023-07-29T03:05:43;5.93;;;3.90;;
10934;SDS011;5520;45.752;4.874;2023-07-29T03:08:12;3.50;;;3.20;;
10934;SDS011;5520;45.752;4.874;2023-07-29T03:10:40;4.80;;;3.93;;
10934;SDS011;5520;45.752;4.874;2023-07-29T03:13:08;5.63;;;3.43;;
10934;SDS011;5520;45.752;4.874;2023-07-29T03:15:36;5.57;;;3.13;;
10934;SDS011;5520;45.752;4.874;2023-07-29T03:18:04;3.60;;;3.30;;
10934;SDS011;5520;45.752;4.874;2023-07-29T03:20:33;3.50;;;3.20;;
10934;SDS011;5520;45.752;4.874;2023-07-29T03:23:02;3.40;;;3.00;;
10934;SDS011;5520;45.752;4.874;2023-07-29T03:25:31;6.63;;;3.43;;
10934;SDS011;5520;45.752;4.874;2023-07-29T03:27:59;3.90;;;3.40;;
10934;SDS011;5520;45.752;4.874;2023-07-29T03:30:27;3.43;;;3.13;;
10934;SDS011;5520;45.752;4.874;2023-07-29T03:32:55;3.47;;;3.17;;
10934;SDS011;5520;45.752;4.874;2023-07-29T03:35:23;4.70;;;3.13;;
10934;SDS011;5520;45.752;4.874;2023-07-29T03:37:50;6.67;;;3.50;;
10934;SDS011;5520;45.752;4.874;2023-07-29T03:40:18;5.47;;;3.53;;
10934;SDS011;5520;45.752;4.874;2023-07-29T03:42:47;5.70;;;3.67;;
10934;SDS011;5520;45.752;4.874;2023-07-29T03:45:15;5.37;;;3.73;;
10934;SDS011;5520;45.752;4.874;2023-07-29T03:47:43;4.00;;;3.23;;
10934;SDS011;5520;45.752;4.874;2023-07-29T03:50:11;6.03;;;3.80;;
10934;SDS011;5520;45.752;4.874;2023-07-29T03:52:39;4.70;;;3.70;;
10934;SDS011;5520;45.752;4.874;2023-07-29T03:55:07;3.70;;;3.30;;
10934;SDS011;5520;45.752;4.874;2023-07-29T03:57:35;3.83;;;3.53;;
10934;SDS011;5520;45.752;4.874;2023-07-29T04:00:05;3.67;;;3.37;;
10934;SDS011;5520;45.752;4.874;2023-07-29T04:02:36;4.73;;;3.70;;
10934;SDS011;5520;45.752;4.874;2023-07-29T04:05:05;4.17;;;3.47;;
10934;SDS011;5520;45.752;4.874;2023-07-29T04:07:34;6.73;;;3.40;;
10934;SDS011;5520;45.752;4.874;2023-07-29T04:10:03;4.57;;;4.10;;
10934;SDS011;5520;45.752;4.874;2023-07-29T04:12:31;3.47;;;2.73;;
10934;SDS011;5520;45.752;4.874;2023-07-29T04:14:59;3.97;;;3.57;;
10934;SDS011;5520;45.752;4.874;2023-07-29T04:17:28;5.67;;;2.90;;
10934;SDS011;5520;45.752;4.874;2023-07-29T04:19:58;3.63;;;3.00;;
10934;SDS011;5520;45.752;4.874;2023-07-29T04:22:26;3.80;;;3.40;;
10934;SDS011;5520;45.752;4.874;2023-07-29T04:24:54;3.97;;;2.40;;
10934;SDS011;5520;45.752;4.874;2023-07-29T04:27:21;3.10;;;2.80;;
10934;SDS011;5520;45.752;4.874;2023-07-29T04:29:49;3.30;;;3.00;;
10934;SDS011;5520;45.752;4.874;2023-07-29T04:32:17;3.40;;;2.80;;
10934;SDS011;5520;45.752;4.874;2023-07-29T04:34:46;3.50;;;2.37;;
10934;SDS011;5520;45.752;4.874;2023-07-29T04:37:14;3.03;;;2.73;;
10934;SDS011;5520;45.752;4.874;2023-07-29T04:39:42;3.60;;;3.00;;
10934;SDS011;5520;45.752;4.874;2023-07-29T04:42:09;3.00;;;2.70;;
10934;SDS011;5520;45.752;4.874;2023-07-29T04:44:37;3.97;;;2.70;;
10934;SDS011;5520;45.752;4.874;2023-07-29T04:47:05;5.00;;;3.20;;
10934;SDS011;5520;45.752;4.874;2023-07-29T04:49:32;4.80;;;2.90;;
10934;SDS011;5520;45.752;4.874;2023-07-29T04:52:02;4.80;;;2.67;;
10934;SDS011;5520;45.752;4.874;2023-07-29T04:54:30;2.70;;;2.50;;
10934;SDS011;5520;45.752;4.874;2023-07-29T04:57:00;3.70;;;2.67;;
10934;SDS011;5520;45.752;4.874;2023-07-29T04:59:29;3.23;;;2.93;;
10934;SDS011;5520;45.752;4.874;2023-07-29T05:01:57;3.40;;;2.77;;
10934;SDS011;5520;45.752;4.874;2023-07-29T05:04:25;3.37;;;2.90;;
10934;SDS011;5520;45.752;4.874;2023-07-29T05:06:53;3.20;;;2.87;;
10934;SDS011;5520;45.752;4.874;2023-07-29T05:09:22;3.77;;;2.80;;
10934;SDS011;5520;45.752;4.874;2023-07-29T05:11:52;5.50;;;3.20;;
10934;SDS011;5520;45.752;4.874;2023-07-29T05:14:20;2.77;;;2.50;;
10934;SDS011;5520;45.752;4.874;2023-07-29T05:16:48;2.87;;;2.67;;
10934;SDS011;5520;45.752;4.874;2023-07-29T05:19:15;3.80;;;3.00;;
10934;SDS011;5520;45.752;4.874;2023-07-29T05:21:43;3.20;;;2.90;;
10934;SDS011;5520;45.752;4.874;2023-07-29T05:24:11;7.13;;;2.93;;
10934;SDS011;5520;45.752;4.874;2023-07-29T05:26:40;4.43;;;3.17;;
10934;SDS011;5520;45.752;4.874;2023-07-29T05:29:08;3.80;;;3.17;;
10934;SDS011;5520;45.752;4.874;2023-07-29T05:31:35;2.97;;;2.67;;
10934;SDS011;5520;45.752;4.874;2023-07-29T05:34:03;3.20;;;2.90;;
10934;SDS011;5520;45.752;4.874;2023-07-29T05:36:31;5.23;;;3.60;;
10934;SDS011;5520;45.752;4.874;2023-07-29T05:39:00;5.47;;;2.77;;
10934;SDS011;5520;45.752;4.874;2023-07-29T05:41:27;3.07;;;2.73;;
10934;SDS011;5520;45.752;4.874;2023-07-29T05:43:57;4.97;;;3.20;;
10934;SDS011;5520;45.752;4.874;2023-07-29T05:46:24;7.50;;;3.10;;
10934;SDS011;5520;45.752;4.874;2023-07-29T05:48:52;3.53;;;2.67;;
10934;SDS011;5520;45.752;4.874;2023-07-29T05:51:20;3.50;;;3.17;;
10934;SDS011;5520;45.752;4.874;2023-07-29T05:53:48;3.43;;;3.10;;
10934;SDS011;5520;45.752;4.874;2023-07-29T05:56:16;3.47;;;3.10;;
10934;SDS011;5520;45.752;4.874;2023-07-29T05:58:43;4.73;;;3.20;;
10934;SDS011;5520;45.752;4.874;2023-07-29T06:01:13;5.13;;;3.10;;
10934;SDS011;5520;45.752;4.874;2023-07-29T06:03:40;6.77;;;3.60;;
10934;SDS011;5520;45.752;4.874;2023-07-29T06:06:08;4.67;;;2.90;;
10934;SDS011;5520;45.752;4.874;2023-07-29T06:08:36;3.90;;;3.43;;
10934;SDS011;5520;45.752;4.874;2023-07-29T06:11:04;5.53;;;3.47;;
10934;SDS011;5520;45.752;4.874;2023-07-29T06:13:32;5.33;;;3.57;;
10934;SDS011;5520;45.752;4.874;2023-07-29T06:16:00;8.37;;;3.50;;
10934;SDS011;5520;45.752;4.874;2023-07-29T06:18:30;5.17;;;3.60;;
10934;SDS011;5520;45.752;4.874;2023-07-29T06:20:59;6.40;;;4.07;;
10934;SDS011;5520;45.752;4.874;2023-07-29T06:23:26;8.10;;;3.40;;
10934;SDS011;5520;45.752;4.874;2023-07-29T06:25:54;5.70;;;3.80;;
10934;SDS011;5520;45.752;4.874;2023-07-29T06:28:22;7.03;;;3.80;;
10934;SDS011;5520;45.752;4.874;2023-07-29T06:30:50;7.03;;;4.57;;
10934;SDS011;5520;45.752;4.874;2023-07-29T06:33:17;5.00;;;3.93;;
10934;SDS011;5520;45.752;4.874;2023-07-29T06:35:47;5.73;;;3.60;;
10934;SDS011;5520;45.752;4.874;2023-07-29T06:38:14;4.43;;;3.47;;
10934;SDS011;5520;45.752;4.874;2023-07-29T06:40:45;7.57;;;3.67;;
10934;SDS011;5520;45.752;4.874;2023-07-29T06:43:13;4.47;;;3.30;;
10934;SDS011;5520;45.752;4.874;2023-07-29T06:45:41;7.37;;;3.77;;
10934;SDS011;5520;45.752;4.874;2023-07-29T06:48:09;5.00;;;3.53;;
10934;SDS011;5520;45.752;4.874;2023-07-29T06:50:36;6.97;;;3.83;;
10934;SDS011;5520;45.752;4.874;2023-07-29T06:53:08;4.80;;;3.83;;
10934;SDS011;5520;45.752;4.874;2023-07-29T06:55:36;4.27;;;3.77;;
10934;SDS011;5520;45.752;4.874;2023-07-29T06:58:04;5.43;;;3.70;;
10934;SDS011;5520;45.752;4.874;2023-07-29T07:00:35;6.70;;;3.80;;
10934;SDS011;5520;45.752;4.874;2023-07-29T07:03:03;8.90;;;4.00;;
10934;SDS011;5520;45.752;4.874;2023-07-29T07:05:30;5.10;;;3.57;;
10934;SDS011;5520;45.752;4.874;2023-07-29T07:07:58;4.63;;;3.53;;
10934;SDS011;5520;45.752;4.874;2023-07-29T07:10:27;9.17;;;4.00;;
10934;SDS011;5520;45.752;4.874;2023-07-29T07:12:55;4.27;;;3.67;;
10934;SDS011;5520;45.752;4.874;2023-07-29T07:15:23;5.47;;;3.97;;
10934;SDS011;5520;45.752;4.874;2023-07-29T07:17:51;4.20;;;3.53;;
10934;SDS011;5520;45.752;4.874;2023-07-29T07:20:19;6.07;;;4.47;;
10934;SDS011;5520;45.752;4.874;2023-07-29T07:22:46;4.30;;;3.90;;
10934;SDS011;5520;45.752;4.874;2023-07-29T07:25:14;4.50;;;3.80;;
10934;SDS011;5520;45.752;4.874;2023-07-29T07:27:43;4.73;;;3.87;;
10934;SDS011;5520;45.752;4.874;2023-07-29T07:30:11;4.63;;;3.97;;
10934;SDS011;5520;45.752;4.874;2023-07-29T07:32:39;4.40;;;4.00;;
10934;SDS011;5520;45.752;4.874;2023-07-29T07:35:07;4.33;;;3.87;;
10934;SDS011;5520;45.752;4.874;2023-07-29T07:37:35;4.60;;;4.17;;
10934;SDS011;5520;45.752;4.874;2023-07-29T07:40:03;4.83;;;4.37;;
10934;SDS011;5520;45.752;4.874;2023-07-29T07:42:31;7.10;;;4.30;;
10934;SDS011;5520;45.752;4.874;2023-07-29T07:45:00;7.03;;;4.03;;
10934;SDS011;5520;45.752;4.874;2023-07-29T07:47:28;4.67;;;4.20;;
10934;SDS011;5520;45.752;4.874;2023-07-29T07:49:56;5.07;;;4.23;;
10934;SDS011;5520;45.752;4.874;2023-07-29T07:52:24;4.53;;;3.57;;
10934;SDS011;5520;45.752;4.874;2023-07-29T07:54:51;5.07;;;3.87;;
10934;SDS011;5520;45.752;4.874;2023-07-29T07:57:19;4.33;;;3.70;;
10934;SDS011;5520;45.752;4.874;2023-07-29T07:59:47;5.67;;;4.13;;
10934;SDS011;5520;45.752;4.874;2023-07-29T08:02:16;4.23;;;3.67;;
10934;SDS011;5520;45.752;4.874;2023-07-29T08:04:44;4.63;;;3.80;;
10934;SDS011;5520;45.752;4.874;2023-07-29T08:07:12;6.00;;;3.67;;
10934;SDS011;5520;45.752;4.874;2023-07-29T08:09:40;5.97;;;4.33;;
10934;SDS011;5520;45.752;4.874;2023-07-29T08:12:08;5.00;;;4.20;;
10934;SDS011;5520;45.752;4.874;2023-07-29T08:14:36;5.30;;;4.03;;
10934;SDS011;5520;45.752;4.874;2023-07-29T08:17:04;6.83;;;3.87;;
10934;SDS011;5520;45.752;4.874;2023-07-29T08:19:33;4.07;;;3.67;;
10934;SDS011;5520;45.752;4.874;2023-07-29T08:22:02;5.23;;;3.53;;
10934;SDS011;5520;45.752;4.874;2023-07-29T08:24:30;4.90;;;4.03;;
10934;SDS011;5520;45.752;4.874;2023-07-29T08:26:57;5.40;;;3.67;;
10934;SDS011;5520;45.752;4.874;2023-07-29T08:29:25;4.67;;;3.50;;
10934;SDS011;5520;45.752;4.874;2023-07-29T08:31:53;5.43;;;4.10;;
10934;SDS011;5520;45.752;4.874;2023-07-29T08:34:21;7.10;;;3.63;;
10934;SDS011;5520;45.752;4.874;2023-07-29T08:36:50;4.23;;;3.70;;
10934;SDS011;5520;45.752;4.874;2023-07-29T08:39:18;3.63;;;3.33;;
10934;SDS011;5520;45.752;4.874;2023-07-29T08:41:48;7.33;;;3.70;;
10934;SDS011;5520;45.752;4.874;2023-07-29T08:44:18;5.70;;;3.93;;
10934;SDS011;5520;45.752;4.874;2023-07-29T08:46:46;4.60;;;3.20;;
10934;SDS011;5520;45.752;4.874;2023-07-29T08:49:13;4.43;;;3.40;;
10934;SDS011;5520;45.752;4.874;2023-07-29T08:51:45;6.90;;;3.27;;
10934;SDS011;5520;45.752;4.874;2023-07-29T08:54:15;5.20;;;3.17;;
10934;SDS011;5520;45.752;4.874;2023-07-29T08:56:43;3.63;;;3.10;;
10934;SDS011;5520;45.752;4.874;2023-07-29T08:59:11;3.40;;;3.03;;
10934;SDS011;5520;45.752;4.874;2023-07-29T09:01:39;4.00;;;3.50;;
10934;SDS011;5520;45.752;4.874;2023-07-29T09:04:07;3.47;;;3.17;;
10934;SDS011;5520;45.752;4.874;2023-07-29T09:06:35;5.60;;;3.70;;
10934;SDS011;5520;45.752;4.874;2023-07-29T09:09:05;4.43;;;3.50;;
10934;SDS011;5520;45.752;4.874;2023-07-29T09:11:36;3.53;;;3.07;;
10934;SDS011;5520;45.752;4.874;2023-07-29T09:14:04;4.43;;;3.60;;
10934;SDS011;5520;45.752;4.874;2023-07-29T09:16:31;5.13;;;3.60;;
10934;SDS011;5520;45.752;4.874;2023-07-29T09:19:00;5.17;;;3.77;;
10934;SDS011;5520;45.752;4.874;2023-07-29T09:21:28;4.17;;;3.30;;
10934;SDS011;5520;45.752;4.874;2023-07-29T09:23:56;5.27;;;3.53;;
10934;SDS011;5520;45.752;4.874;2023-07-29T09:26:24;6.97;;;4.10;;
10934;SDS011;5520;45.752;4.874;2023-07-29T09:28:54;6.53;;;3.63;;
10934;SDS011;5520;45.752;4.874;2023-07-29T09:31:23;6.60;;;3.87;;
10934;SDS011;5520;45.752;4.874;2023-07-29T09:33:53;6.70;;;3.93;;
10934;SDS011;5520;45.752;4.874;2023-07-29T09:36:23;7.80;;;3.97;;
10934;SDS011;5520;45.752;4.874;2023-07-29T09:38:54;5.20;;;3.53;;
10934;SDS011;5520;45.752;4.874;2023-07-29T09:41:22;6.13;;;3.70;;
10934;SDS011;5520;45.752;4.874;2023-07-29T09:43:56;4.67;;;4.27;;
10934;SDS011;5520;45.752;4.874;2023-07-29T09:46:25;4.67;;;4.17;;
10934;SDS011;5520;45.752;4.874;2023-07-29T09:48:53;4.93;;;4.43;;
10934;SDS011;5520;45.752;4.874;2023-07-29T09:51:22;7.73;;;4.30;;
10934;SDS011;5520;45.752;4.874;2023-07-29T09:53:50;6.43;;;4.43;;
10934;SDS011;5520;45.752;4.874;2023-07-29T09:56:18;6.40;;;4.63;;
10934;SDS011;5520;45.752;4.874;2023-07-29T09:58:51;6.10;;;4.47;;
10934;SDS011;5520;45.752;4.874;2023-07-29T10:01:20;4.47;;;3.97;;
10934;SDS011;5520;45.752;4.874;2023-07-29T10:03:48;5.47;;;4.13;;
10934;SDS011;5520;45.752;4.874;2023-07-29T10:06:16;7.07;;;5.00;;
10934;SDS011;5520;45.752;4.874;2023-07-29T10:08:45;9.20;;;6.30;;
10934;SDS011;5520;45.752;4.874;2023-07-29T10:11:13;5.80;;;4.20;;
10934;SDS011;5520;45.752;4.874;2023-07-29T10:13:40;5.33;;;4.10;;
10934;SDS011;5520;45.752;4.874;2023-07-29T10:16:19;4.07;;;3.67;;
10934;SDS011;5520;45.752;4.874;2023-07-29T10:18:49;5.03;;;4.37;;
10934;SDS011;5520;45.752;4.874;2023-07-29T10:21:18;6.70;;;4.73;;
10934;SDS011;5520;45.752;4.874;2023-07-29T10:23:47;5.07;;;3.67;;
10934;SDS011;5520;45.752;4.874;2023-07-29T10:26:16;8.07;;;4.13;;
10934;SDS011;5520;45.752;4.874;2023-07-29T10:28:46;6.43;;;4.10;;
10934;SDS011;5520;45.752;4.874;2023-07-29T10:31:15;4.20;;;3.80;;
10934;SDS011;5520;45.752;4.874;2023-07-29T10:33:44;5.80;;;4.27;;
10934;SDS011;5520;45.752;4.874;2023-07-29T10:36:13;5.13;;;4.10;;
10934;SDS011;5520;45.752;4.874;2023-07-29T10:38:40;7.67;;;4.20;;
10934;SDS011;5520;45.752;4.874;2023-07-29T10:41:08;5.37;;;4.53;;
10934;SDS011;5520;45.752;4.874;2023-07-29T10:43:36;6.97;;;4.70;;
10934;SDS011;5520;45.752;4.874;2023-07-29T10:46:15;5.53;;;4.10;;
10934;SDS011;5520;45.752;4.874;2023-07-29T10:48:51;6.60;;;4.50;;
10934;SDS011;5520;45.752;4.874;2023-07-29T10:51:26;4.77;;;4.07;;
10934;SDS011;5520;45.752;4.874;2023-07-29T10:53:56;4.27;;;3.53;;
10934;SDS011;5520;45.752;4.874;2023-07-29T10:56:25;3.97;;;3.17;;
10934;SDS011;5520;45.752;4.874;2023-07-29T10:58:54;5.57;;;3.77;;
10934;SDS011;5520;45.752;4.874;2023-07-29T11:01:29;4.10;;;3.40;;
10934;SDS011;5520;45.752;4.874;2023-07-29T11:09:40;3.30;;;3.00;;
10934;SDS011;5520;45.752;4.874;2023-07-29T11:14:50;2.67;;;2.47;;
10934;SDS011;5520;45.752;4.874;2023-07-29T11:17:18;3.97;;;2.90;;
10934;SDS011;5520;45.752;4.874;2023-07-29T11:19:48;4.47;;;2.77;;
10934;SDS011;5520;45.752;4.874;2023-07-29T11:22:17;3.47;;;2.57;;
10934;SDS011;5520;45.752;4.874;2023-07-29T11:24:47;2.70;;;2.50;;
10934;SDS011;5520;45.752;4.874;2023-07-29T11:27:14;3.63;;;2.50;;
10934;SDS011;5520;45.752;4.874;2023-07-29T11:29:42;2.43;;;2.20;;
10934;SDS011;5520;45.752;4.874;2023-07-29T11:32:10;3.53;;;2.43;;
10934;SDS011;5520;45.752;4.874;2023-07-29T11:34:38;3.53;;;2.60;;
10934;SDS011;5520;45.752;4.874;2023-07-29T11:37:06;3.13;;;2.53;;
10934;SDS011;5520;45.752;4.874;2023-07-29T11:39:34;2.53;;;2.17;;
10934;SDS011;5520;45.752;4.874;2023-07-29T11:42:08;4.90;;;2.70;;
10934;SDS011;5520;45.752;4.874;2023-07-29T11:44:38;4.77;;;2.70;;
10934;SDS011;5520;45.752;4.874;2023-07-29T11:47:06;3.73;;;2.90;;
10934;SDS011;5520;45.752;4.874;2023-07-29T11:49:34;5.63;;;3.10;;
10934;SDS011;5520;45.752;4.874;2023-07-29T11:52:02;3.10;;;2.77;;
10934;SDS011;5520;45.752;4.874;2023-07-29T11:54:30;2.40;;;2.03;;
10934;SDS011;5520;45.752;4.874;2023-07-29T11:56:57;10.70;;;6.57;;
10934;SDS011;5520;45.752;4.874;2023-07-29T11:59:27;2.93;;;2.20;;
10934;SDS011;5520;45.752;4.874;2023-07-29T12:01:54;2.73;;;2.50;;
10934;SDS011;5520;45.752;4.874;2023-07-29T12:04:22;4.60;;;2.50;;
10934;SDS011;5520;45.752;4.874;2023-07-29T12:06:50;3.73;;;2.63;;
10934;SDS011;5520;45.752;4.874;2023-07-29T12:09:18;2.60;;;2.40;;
10934;SDS011;5520;45.752;4.874;2023-07-29T12:11:46;2.37;;;2.20;;
10934;SDS011;5520;45.752;4.874;2023-07-29T12:14:15;2.90;;;2.23;;
10934;SDS011;5520;45.752;4.874;2023-07-29T12:16:47;2.10;;;1.90;;
10934;SDS011;5520;45.752;4.874;2023-07-29T12:19:15;2.53;;;2.13;;
10934;SDS011;5520;45.752;4.874;2023-07-29T12:21:44;2.53;;;2.30;;
10934;SDS011;5520;45.752;4.874;2023-07-29T12:24:12;2.10;;;1.90;;
10934;SDS011;5520;45.752;4.874;2023-07-29T12:26:40;2.67;;;2.47;;
10934;SDS011;5520;45.752;4.874;2023-07-29T12:29:11;4.53;;;2.37;;
10934;SDS011;5520;45.752;4.874;2023-07-29T12:31:39;2.03;;;1.93;;
10934;SDS011;5520;45.752;4.874;2023-07-29T12:34:08;2.43;;;1.70;;
10934;SDS011;5520;45.752;4.874;2023-07-29T12:36:42;2.23;;;2.03;;
10934;SDS011;5520;45.752;4.874;2023-07-29T12:39:16;2.13;;;1.93;;
10934;SDS011;5520;45.752;4.874;2023-07-29T12:41:44;2.40;;;2.13;;
10934;SDS011;5520;45.752;4.874;2023-07-29T12:44:12;2.57;;;2.03;;
10934;SDS011;5520;45.752;4.874;2023-07-29T12:46:42;4.50;;;2.37;;
10934;SDS011;5520;45.752;4.874;2023-07-29T12:49:11;3.07;;;2.30;;
10934;SDS011;5520;45.752;4.874;2023-07-29T12:51:39;2.57;;;2.37;;
10934;SDS011;5520;45.752;4.874;2023-07-29T12:54:07;2.83;;;2.10;;
10934;SDS011;5520;45.752;4.874;2023-07-29T12:56:34;3.00;;;2.23;;
10934;SDS011;5520;45.752;4.874;2023-07-29T12:59:05;2.50;;;2.20;;
10934;SDS011;5520;45.752;4.874;2023-07-29T13:01:33;2.63;;;2.07;;
10934;SDS011;5520;45.752;4.874;2023-07-29T13:04:00;3.17;;;2.47;;
10934;SDS011;5520;45.752;4.874;2023-07-29T13:06:29;2.70;;;2.50;;
10934;SDS011;5520;45.752;4.874;2023-07-29T13:08:58;3.93;;;2.40;;
10934;SDS011;5520;45.752;4.874;2023-07-29T13:11:26;2.83;;;2.57;;
10934;SDS011;5520;45.752;4.874;2023-07-29T13:13:54;4.00;;;2.67;;
10934;SDS011;5520;45.752;4.874;2023-07-29T13:16:22;2.70;;;2.50;;
10934;SDS011;5520;45.752;4.874;2023-07-29T13:18:49;2.90;;;2.60;;
10934;SDS011;5520;45.752;4.874;2023-07-29T13:21:17;2.73;;;2.40;;
10934;SDS011;5520;45.752;4.874;2023-07-29T13:23:46;2.63;;;2.40;;
10934;SDS011;5520;45.752;4.874;2023-07-29T13:26:14;2.67;;;2.47;;
10934;SDS011;5520;45.752;4.874;2023-07-29T13:28:42;3.00;;;2.53;;
10934;SDS011;5520;45.752;4.874;2023-07-29T13:31:09;3.27;;;2.30;;
10934;SDS011;5520;45.752;4.874;2023-07-29T13:33:37;2.00;;;1.90;;
10934;SDS011;5520;45.752;4.874;2023-07-29T13:36:05;2.00;;;1.90;;
10934;SDS011;5520;45.752;4.874;2023-07-29T13:38:35;2.87;;;2.57;;
10934;SDS011;5520;45.752;4.874;2023-07-29T13:41:04;3.67;;;2.40;;
10934;SDS011;5520;45.752;4.874;2023-07-29T13:43:32;2.80;;;2.57;;
10934;SDS011;5520;45.752;4.874;2023-07-29T13:46:00;2.67;;;2.37;;
10934;SDS011;5520;45.752;4.874;2023-07-29T13:48:28;2.47;;;2.27;;
10934;SDS011;5520;45.752;4.874;2023-07-29T13:50:56;2.60;;;2.10;;
10934;SDS011;5520;45.752;4.874;2023-07-29T13:53:24;3.00;;;2.10;;
10934;SDS011;5520;45.752;4.874;2023-07-29T13:55:52;2.37;;;2.17;;
10934;SDS011;5520;45.752;4.874;2023-07-29T13:58:21;2.73;;;2.27;;
10934;SDS011;5520;45.752;4.874;2023-07-29T14:00:49;2.40;;;2.20;;
10934;SDS011;5520;45.752;4.874;2023-07-29T14:03:16;3.67;;;2.60;;
10934;SDS011;5520;45.752;4.874;2023-07-29T14:05:44;4.57;;;1.90;;
10934;SDS011;5520;45.752;4.874;2023-07-29T14:08:12;2.43;;;2.20;;
10934;SDS011;5520;45.752;4.874;2023-07-29T14:10:40;2.27;;;2.03;;
10934;SDS011;5520;45.752;4.874;2023-07-29T14:13:07;2.77;;;2.10;;
10934;SDS011;5520;45.752;4.874;2023-07-29T14:15:36;2.50;;;2.30;;
10934;SDS011;5520;45.752;4.874;2023-07-29T14:18:04;3.93;;;2.00;;
10934;SDS011;5520;45.752;4.874;2023-07-29T14:20:32;2.10;;;2.00;;
10934;SDS011;5520;45.752;4.874;2023-07-29T14:23:00;2.27;;;2.00;;
10934;SDS011;5520;45.752;4.874;2023-07-29T14:25:28;2.83;;;2.17;;
10934;SDS011;5520;45.752;4.874;2023-07-29T14:27:56;2.37;;;2.03;;
10934;SDS011;5520;45.752;4.874;2023-07-29T14:30:24;2.50;;;2.30;;
10934;SDS011;5520;45.752;4.874;2023-07-29T14:32:53;2.47;;;2.27;;
10934;SDS011;5520;45.752;4.874;2023-07-29T14:35:21;6.10;;;5.07;;
10934;SDS011;5520;45.752;4.874;2023-07-29T14:37:49;2.97;;;2.20;;
10934;SDS011;5520;45.752;4.874;2023-07-29T14:40:17;2.60;;;2.10;;
10934;SDS011;5520;45.752;4.874;2023-07-29T14:42:44;1.80;;;1.70;;
10934;SDS011;5520;45.752;4.874;2023-07-29T14:45:12;1.87;;;1.77;;
10934;SDS011;5520;45.752;4.874;2023-07-29T14:47:40;4.13;;;2.20;;
10934;SDS011;5520;45.752;4.874;2023-07-29T14:50:09;2.10;;;1.90;;
10934;SDS011;5520;45.752;4.874;2023-07-29T14:52:37;2.13;;;1.80;;
10934;SDS011;5520;45.752;4.874;2023-07-29T14:55:05;2.33;;;2.10;;
10934;SDS011;5520;45.752;4.874;2023-07-29T14:57:33;2.20;;;2.10;;
10934;SDS011;5520;45.752;4.874;2023-07-29T15:00:01;2.87;;;2.00;;
10934;SDS011;5520;45.752;4.874;2023-07-29T15:02:30;1.93;;;1.73;;
10934;SDS011;5520;45.752;4.874;2023-07-29T15:04:57;1.90;;;1.80;;
10934;SDS011;5520;45.752;4.874;2023-07-29T15:07:27;1.83;;;1.73;;
10934;SDS011;5520;45.752;4.874;2023-07-29T15:09:54;1.97;;;1.80;;
10934;SDS011;5520;45.752;4.874;2023-07-29T15:12:22;2.50;;;2.30;;
10934;SDS011;5520;45.752;4.874;2023-07-29T15:14:50;1.83;;;1.73;;
10934;SDS011;5520;45.752;4.874;2023-07-29T15:17:18;2.00;;;1.87;;